Time;durP1;ratioP1;P1;durP2;ratioP2;P2;SDS_P1;SDS_P2;PMS_P1;PMS_P2;Temp;Humidity;BMP_temperature;BMP_pressure;BME280_temperature;BME280_humidity;BME280_pressure;Samples;Min_cycle;Max_cycle;Signal;HPM_P1;HPM_P2
2022/03/17 00:02:09;;;;;;;23.97;21.07;;;;;;;8.55;89.75;97079.94;5033381;28;20639;-52
2022/03/17 00:04:36;;;;;;;24.40;21.33;;;;;;;8.54;90.31;97080.91;5033667;28;20200;-53
2022/03/17 00:07:04;;;;;;;25.47;22.80;;;;;;;8.46;89.65;97076.22;5033437;28;20227;-53
2022/03/17 00:09:30;;;;;;;24.50;21.50;;;;;;;8.48;90.06;97082.19;5033195;28;20208;-52
2022/03/17 00:11:58;;;;;;;23.97;21.37;;;;;;;8.42;90.19;97080.06;5033659;28;20223;-53
2022/03/17 00:14:24;;;;;;;26.50;22.13;;;;;;;8.40;90.02;97089.84;5033046;28;20200;-53
2022/03/17 00:16:51;;;;;;;24.43;21.83;;;;;;;8.34;90.17;97087.72;5032438;28;20219;-53
2022/03/17 00:19:17;;;;;;;25.37;22.63;;;;;;;8.33;90.42;97086.88;5033823;28;20208;-50
2022/03/17 00:21:44;;;;;;;24.23;21.67;;;;;;;8.28;90.62;97089.03;5034036;28;20269;-51
2022/03/17 00:24:10;;;;;;;24.33;21.63;;;;;;;8.25;90.56;97085.75;5033506;28;20212;-52
2022/03/17 00:26:37;;;;;;;24.27;21.67;;;;;;;8.26;90.60;97084.78;5032491;28;20207;-51
2022/03/17 00:29:07;;;;;;;25.80;22.33;;;;;;;8.24;90.27;97091.97;5032068;28;20230;-51
2022/03/17 00:31:33;;;;;;;25.33;22.63;;;;;;;8.22;90.18;97083.38;5032462;28;20287;-51
2022/03/17 00:34:00;;;;;;;25.50;22.80;;;;;;;8.18;90.54;97088.03;5032231;28;20242;-52
2022/03/17 00:36:26;;;;;;;25.10;22.50;;;;;;;8.18;90.28;97085.41;5040872;28;20212;-51
2022/03/17 00:38:53;;;;;;;24.13;21.63;;;;;;;8.14;90.28;97091.84;5052617;28;20204;-52
2022/03/17 00:41:19;;;;;;;24.50;21.90;;;;;;;8.11;90.88;97088.63;5040929;28;20542;-51
2022/03/17 00:43:46;;;;;;;26.00;22.13;;;;;;;8.11;90.71;97096.50;5041211;28;20224;-51
2022/03/17 00:46:16;;;;;;;26.80;22.97;;;;;;;8.12;90.71;97098.16;5045875;28;20204;-54
2022/03/17 00:48:43;;;;;;;25.03;22.50;;;;;;;8.09;90.94;97099.25;5033827;28;20212;-53
2022/03/17 00:51:09;;;;;;;25.87;23.17;;;;;;;8.07;90.76;97100.34;5046278;28;20204;-53
2022/03/17 00:53:38;;;;;;;25.37;22.67;;;;;;;8.06;90.80;97094.22;5045228;28;20231;-52
2022/03/17 00:56:05;;;;;;;24.93;22.33;;;;;;;8.04;90.39;97096.16;5036950;28;20211;-56
2022/03/17 00:58:31;;;;;;;25.70;22.30;;;;;;;8.01;90.65;97101.63;5034324;28;20208;-56
2022/03/17 01:00:58;;;;;;;24.93;22.37;;;;;;;7.98;90.68;97093.94;5037384;28;20241;-54
2022/03/17 01:03:26;;;;;;;24.90;22.27;;;;;;;8.02;90.44;97093.63;5033123;28;20204;-55
2022/03/17 01:05:53;;;;;;;25.47;22.63;;;;;;;7.99;90.27;97096.50;5034381;28;20552;-55
2022/03/17 01:08:20;;;;;;;27.37;22.37;;;;;;;7.93;90.91;97094.31;5035435;28;21525;-55
2022/03/17 01:10:46;;;;;;;24.00;21.43;;;;;;;7.92;91.03;97091.78;5034892;28;20208;-55
2022/03/17 01:13:13;;;;;;;25.33;22.63;;;;;;;7.92;90.86;97097.91;5033721;28;20223;-54
2022/03/17 01:15:39;;;;;;;25.23;22.63;;;;;;;7.88;91.20;97103.50;5031953;28;20204;-54
2022/03/17 01:18:06;;;;;;;25.03;22.37;;;;;;;7.82;91.88;97096.91;5032646;28;20270;-52
2022/03/17 01:20:34;;;;;;;24.67;22.17;;;;;;;7.84;91.28;97102.91;5032303;28;20196;-53
2022/03/17 01:23:01;;;;;;;24.13;21.63;;;;;;;7.83;91.12;97103.03;5033797;28;20215;-54
2022/03/17 01:25:27;;;;;;;27.60;22.93;;;;;;;7.85;91.18;97106.38;5036123;28;20523;-54
2022/03/17 01:27:54;;;;;;;25.90;22.40;;;;;;;7.84;90.78;97110.78;5035449;28;20698;-54
2022/03/17 01:30:21;;;;;;;25.63;22.93;;;;;;;7.81;91.19;97105.75;5032855;28;20219;-54
2022/03/17 01:32:47;;;;;;;25.30;22.00;;;;;;;7.80;91.52;97104.06;5034148;28;20234;-54
2022/03/17 01:35:14;;;;;;;27.90;22.80;;;;;;;7.78;91.06;97100.72;5033926;28;20212;-54
2022/03/17 01:37:42;;;;;;;27.10;22.43;;;;;;;7.74;91.84;97104.53;5031340;28;20204;-55
2022/03/17 01:40:10;;;;;;;24.33;21.60;;;;;;;7.74;91.75;97112.44;5040208;28;20346;-55
2022/03/17 01:42:37;;;;;;;24.50;21.93;;;;;;;7.76;91.67;97101.81;5038431;28;20212;-53
2022/03/17 01:45:04;;;;;;;25.30;21.97;;;;;;;7.71;91.06;97102.16;5039110;28;20200;-54
2022/03/17 01:47:33;;;;;;;26.03;22.23;;;;;;;7.69;91.48;97105.81;5030585;28;20196;-51
2022/03/17 01:50:01;;;;;;;26.13;22.20;;;;;;;7.69;91.35;97106.66;5030470;28;20208;-51
2022/03/17 01:52:28;;;;;;;25.83;22.97;;;;;;;7.67;91.47;97105.13;5031522;28;20296;-51
2022/03/17 01:54:57;;;;;;;27.73;23.10;;;;;;;7.64;91.44;97107.97;5031581;28;20214;-53
2022/03/17 01:57:24;;;;;;;23.97;21.47;;;;;;;7.65;91.50;97107.03;5030913;28;20212;-52
2022/03/17 01:59:51;;;;;;;25.17;22.77;;;;;;;7.68;91.09;97105.00;5030679;28;20196;-51
2022/03/17 02:02:18;;;;;;;25.23;22.53;;;;;;;7.61;91.48;97109.06;5031446;28;20199;-52
2022/03/17 02:04:46;;;;;;;25.13;22.43;;;;;;;7.64;91.30;97114.09;5031161;28;20290;-53
2022/03/17 02:07:14;;;;;;;23.93;21.43;;;;;;;7.58;91.16;97122.41;5031193;28;20236;-52
2022/03/17 02:09:43;;;;;;;24.57;21.90;;;;;;;7.55;91.47;97114.75;5031161;28;20242;-54
2022/03/17 02:14:58;;;;;;;25.37;22.67;;;;;;;7.49;91.99;97117.84;5053056;28;20267;-53
2022/03/17 02:17:25;;;;;;;24.53;21.93;;;;;;;7.46;91.03;97115.44;5054604;28;20184;-53
2022/03/17 02:19:52;;;;;;;25.57;22.87;;;;;;;7.46;91.95;97116.28;5050097;28;20271;-53
2022/03/17 02:22:22;;;;;;;23.63;21.23;;;;;;;7.45;91.97;97119.84;5032139;28;20559;-52
2022/03/17 02:27:38;;;;;;;24.90;22.20;;;;;;;7.46;91.36;97116.28;5030485;28;20212;-53
2022/03/17 02:30:05;;;;;;;24.53;21.93;;;;;;;7.43;91.58;97118.28;5031207;28;20668;-52
2022/03/17 02:32:32;;;;;;;25.80;21.90;;;;;;;7.41;92.12;97128.06;5023209;28;20247;-53
2022/03/17 02:35:05;;;;;;;26.47;23.30;;;;;;;7.36;92.10;97119.69;5021618;28;20207;-52
2022/03/17 02:37:32;;;;;;;24.47;21.77;;;;;;;7.41;92.10;97128.06;5020984;28;20220;-53
2022/03/17 02:40:04;;;;;;;26.13;22.43;;;;;;;7.33;92.36;97125.19;5021562;28;20240;-54
2022/03/17 02:42:31;;;;;;;27.20;22.93;;;;;;;7.34;92.38;97132.09;5021169;28;20676;-53
2022/03/17 02:44:59;;;;;;;25.67;22.30;;;;;;;7.35;92.00;97126.75;5018493;28;20232;-54
2022/03/17 02:47:26;;;;;;;24.30;21.70;;;;;;;7.35;91.76;97128.53;5020174;28;20245;-54
2022/03/17 02:49:55;;;;;;;24.50;21.93;;;;;;;7.27;92.48;97131.72;5019501;28;20576;-54
2022/03/17 02:52:21;;;;;;;24.87;22.23;;;;;;;7.28;92.28;97132.56;5018974;28;20297;-53
2022/03/17 02:54:48;;;;;;;24.47;21.87;;;;;;;7.27;92.13;97141.38;5019567;28;20215;-53
2022/03/17 02:57:16;;;;;;;27.07;23.23;;;;;;;7.23;92.31;97135.50;5019834;28;20211;-53
2022/03/17 02:59:42;;;;;;;26.53;23.63;;;;;;;7.21;92.78;97149.72;5020532;28;20227;-50
2022/03/17 03:02:10;;;;;;;24.97;22.20;;;;;;;7.20;93.02;97145.41;5020001;28;20664;-51
2022/03/17 03:04:36;;;;;;;28.07;23.03;;;;;;;7.19;92.50;97149.00;5020784;28;20208;-52
2022/03/17 03:07:06;;;;;;;25.17;22.57;;;;;;;7.14;93.08;97148.50;5020875;28;20203;-51
2022/03/17 03:09:33;;;;;;;25.07;22.13;;;;;;;7.17;92.68;97148.25;5020768;28;20228;-51
2022/03/17 03:11:59;;;;;;;24.97;22.27;;;;;;;7.18;92.57;97153.44;5020802;28;20596;-51
2022/03/17 03:14:27;;;;;;;26.03;23.07;;;;;;;7.16;92.67;97159.72;5020738;28;20212;-51
2022/03/17 03:16:54;;;;;;;27.23;23.47;;;;;;;7.16;92.48;97167.63;5020895;28;20315;-51
2022/03/17 03:19:20;;;;;;;27.33;23.30;;;;;;;7.12;93.21;97171.44;5020738;28;20215;-51
2022/03/17 03:21:47;;;;;;;26.33;23.00;;;;;;;7.15;92.89;97168.59;5020962;28;20204;-51
2022/03/17 03:24:15;;;;;;;25.80;23.03;;;;;;;7.07;92.53;97176.19;5020947;28;20216;-51
2022/03/17 03:26:42;;;;;;;25.90;23.10;;;;;;;7.11;93.06;97182.91;5020690;28;20640;-51
2022/03/17 03:29:10;;;;;;;25.50;22.77;;;;;;;7.09;93.45;97179.53;5020229;28;20225;-51
2022/03/17 03:31:40;;;;;;;26.63;23.83;;;;;;;7.07;92.70;97186.69;5021010;28;20293;-52
2022/03/17 03:34:08;;;;;;;26.90;22.70;;;;;;;7.05;93.26;97183.34;5020203;28;20236;-52
2022/03/17 03:39:18;;;;;;;25.93;22.53;;;;;;;7.06;92.83;97190.25;5021144;28;20207;-52
2022/03/17 03:41:45;;;;;;;25.13;22.50;;;;;;;7.05;92.65;97193.88;5020434;28;20208;-52
2022/03/17 03:44:12;;;;;;;24.43;21.83;;;;;;;7.00;93.14;97197.66;5020648;28;20235;-51
2022/03/17 03:46:40;;;;;;;26.60;23.53;;;;;;;7.03;93.07;97198.38;5032230;28;20200;-52
2022/03/17 03:49:10;;;;;;;25.83;23.10;;;;;;;7.02;92.86;97189.63;5043185;28;20227;-51
2022/03/17 03:51:38;;;;;;;27.30;24.10;;;;;;;6.99;92.93;97198.59;5040571;28;20238;-51
2022/03/17 03:54:14;;;;;;;26.40;23.43;;;;;;;7.01;92.84;97194.06;5019695;28;20201;-52
2022/03/17 03:56:42;;;;;;;24.87;22.17;;;;;;;6.99;93.04;97190.69;5020351;28;20218;-51
2022/03/17 03:59:08;;;;;;;28.70;23.10;;;;;;;6.96;93.30;97195.34;5020914;28;20583;-51
2022/03/17 04:01:35;;;;;;;26.47;22.97;;;;;;;6.96;93.53;97196.19;5020236;28;20299;-51
2022/03/17 04:04:03;;;;;;;27.80;23.30;;;;;;;6.98;93.38;97193.44;5020083;28;20196;-50
2022/03/17 04:06:30;;;;;;;27.43;23.90;;;;;;;7.01;93.25;97199.31;5020102;28;20212;-51
2022/03/17 04:08:57;;;;;;;27.67;23.90;;;;;;;7.00;93.21;97196.81;5020120;28;20230;-52
2022/03/17 04:11:23;;;;;;;27.93;24.67;;;;;;;6.96;93.40;97201.44;5019861;28;20215;-52
2022/03/17 04:13:49;;;;;;;27.00;23.67;;;;;;;6.95;93.91;97205.00;5021079;28;20608;-51
2022/03/17 04:16:16;;;;;;;26.33;23.50;;;;;;;6.96;93.82;97211.13;5023845;28;20204;-52
2022/03/17 04:18:43;;;;;;;24.87;22.27;;;;;;;6.99;93.76;97203.84;5023537;28;20206;-52
2022/03/17 04:21:11;;;;;;;27.47;23.57;;;;;;;7.00;93.07;97212.59;5023647;28;20208;-52
2022/03/17 04:23:37;;;;;;;27.00;23.83;;;;;;;6.97;93.18;97218.91;5023157;28;20690;-52
2022/03/17 04:26:03;;;;;;;25.97;23.27;;;;;;;6.94;92.76;97221.72;5023699;28;20219;-52
2022/03/17 04:28:30;;;;;;;26.13;23.23;;;;;;;6.92;93.32;97215.75;5022464;28;20241;-52
2022/03/17 04:30:56;;;;;;;29.17;23.30;;;;;;;6.90;93.11;97217.66;5023252;28;20219;-51
2022/03/17 04:33:23;;;;;;;24.70;22.10;;;;;;;6.89;93.24;97221.22;5023689;28;20235;-51
2022/03/17 04:35:49;;;;;;;25.37;22.67;;;;;;;6.89;93.29;97226.47;5036167;28;20188;-51
2022/03/17 04:38:17;;;;;;;26.27;23.57;;;;;;;6.85;93.61;97217.13;5044683;28;20195;-51
2022/03/17 04:40:49;;;;;;;27.77;24.67;;;;;;;6.86;93.32;97221.44;5045354;28;20217;-52
2022/03/17 04:43:17;;;;;;;25.93;23.07;;;;;;;6.90;93.75;97222.06;5028310;28;20513;-51
2022/03/17 04:45:44;;;;;;;28.90;24.83;;;;;;;6.91;93.34;97218.47;5027078;28;20208;-51
2022/03/17 04:48:10;;;;;;;27.83;24.83;;;;;;;6.84;94.18;97211.94;5024069;28;20303;-50
2022/03/17 04:50:37;;;;;;;25.63;22.93;;;;;;;6.83;94.14;97216.41;5024211;28;20281;-51
2022/03/17 04:55:48;;;;;;;27.77;23.73;;;;;;;6.86;94.08;97223.22;5023679;28;20892;-52
2022/03/17 04:58:15;;;;;;;32.13;27.67;;;;;;;6.84;93.73;97227.72;5025096;28;20200;-52
2022/03/17 05:00:42;;;;;;;30.53;25.67;;;;;;;6.86;93.74;97231.94;5027783;28;20283;-52
2022/03/17 05:03:08;;;;;;;28.73;25.17;;;;;;;6.84;93.95;97236.44;5027718;28;20208;-53
2022/03/17 05:05:35;;;;;;;28.53;24.67;;;;;;;6.84;93.66;97241.72;5022966;28;20699;-52
2022/03/17 05:08:01;;;;;;;28.97;24.63;;;;;;;6.81;93.99;97244.56;5023057;28;20228;-52
2022/03/17 05:10:29;;;;;;;28.33;24.27;;;;;;;6.78;93.84;97247.41;5022916;28;20221;-52
2022/03/17 05:12:57;;;;;;;30.10;25.43;;;;;;;6.79;94.54;97248.25;5022149;28;20649;-53
2022/03/17 05:15:24;;;;;;;28.77;24.93;;;;;;;6.81;94.43;97251.59;5023352;28;20627;-52
2022/03/17 05:17:51;;;;;;;28.70;24.83;;;;;;;6.80;94.08;97258.63;5022492;28;20207;-52
2022/03/17 05:20:19;;;;;;;28.63;24.47;;;;;;;6.78;94.32;97255.28;5022716;28;20200;-50
2022/03/17 05:22:46;;;;;;;30.80;25.53;;;;;;;6.77;94.32;97253.59;5022327;28;20203;-51
2022/03/17 05:25:12;;;;;;;28.20;24.27;;;;;;;6.78;94.14;97259.69;5022702;28;20197;-52
2022/03/17 05:27:39;;;;;;;31.13;25.27;;;;;;;6.78;94.88;97259.69;5022657;28;20211;-51
2022/03/17 05:30:10;;;;;;;30.30;25.67;;;;;;;6.78;94.41;97265.81;5022063;28;20231;-51
2022/03/17 05:32:36;;;;;;;29.87;25.30;;;;;;;6.82;94.29;97259.41;5022062;28;20282;-52
2022/03/17 05:35:03;;;;;;;30.23;25.47;;;;;;;6.75;94.04;97263.38;5022880;28;20288;-51
2022/03/17 05:37:30;;;;;;;28.93;24.47;;;;;;;6.83;94.21;97262.88;5022141;28;20650;-51
2022/03/17 05:39:56;;;;;;;30.93;24.87;;;;;;;6.79;94.21;97269.28;5022186;28;20200;-52
2022/03/17 05:42:22;;;;;;;28.70;24.83;;;;;;;6.84;94.32;97281.16;5022076;28;20535;-51
2022/03/17 05:44:50;;;;;;;28.07;24.53;;;;;;;6.84;94.13;97280.31;5021721;28;20636;-52
2022/03/17 05:47:18;;;;;;;29.53;25.20;;;;;;;6.80;94.18;97274.41;5025609;28;20282;-51
2022/03/17 05:49:44;;;;;;;27.67;24.77;;;;;;;6.86;94.22;97279.28;5029804;28;20231;-51
2022/03/17 05:52:12;;;;;;;28.53;25.30;;;;;;;6.84;94.51;97280.31;5027950;28;20596;-49
2022/03/17 05:54:39;;;;;;;27.47;23.37;;;;;;;6.89;94.09;97283.47;5022883;28;20226;-51
2022/03/17 05:57:05;;;;;;;34.77;25.70;;;;;;;6.94;94.12;97292.72;5026506;28;20637;-50
2022/03/17 05:59:32;;;;;;;27.20;24.30;;;;;;;6.96;93.97;97290.00;5029044;28;20529;-51
2022/03/17 06:01:58;;;;;;;27.33;24.30;;;;;;;6.95;93.77;97304.06;5025718;28;20300;-50
2022/03/17 06:04:26;;;;;;;29.87;25.90;;;;;;;6.96;93.90;97301.34;5021870;28;20625;-49
2022/03/17 06:06:53;;;;;;;28.13;24.47;;;;;;;7.05;93.76;97314.84;5022248;28;20623;-51
2022/03/17 06:09:19;;;;;;;31.07;25.77;;;;;;;7.07;93.20;97307.66;5021961;28;20226;-51
2022/03/17 06:11:46;;;;;;;28.00;25.00;;;;;;;7.11;93.21;97319.66;5022192;28;20204;-50
2022/03/17 06:14:12;;;;;;;30.60;26.20;;;;;;;7.15;93.21;97321.97;5022116;28;20351;-51
2022/03/17 06:16:39;;;;;;;30.07;26.07;;;;;;;7.20;93.26;97321.66;5022801;28;20587;-50
2022/03/17 06:19:05;;;;;;;30.07;26.07;;;;;;;7.23;92.84;97324.06;5026179;28;20200;-51
2022/03/17 06:21:33;;;;;;;30.43;24.80;;;;;;;7.26;92.80;97324.69;5027022;28;20628;-50
2022/03/17 06:23:59;;;;;;;30.90;25.70;;;;;;;7.31;92.54;97327.84;5021288;28;20219;-51
2022/03/17 06:26:26;;;;;;;29.93;25.63;;;;;;;7.36;92.69;97338.91;5022064;28;20200;-49
2022/03/17 06:28:52;;;;;;;30.10;25.67;;;;;;;7.40;92.41;97335.09;5021516;28;20291;-51
2022/03/17 06:31:19;;;;;;;29.03;25.60;;;;;;;7.37;92.09;97337.94;5021341;28;20204;-49
2022/03/17 06:33:45;;;;;;;29.53;25.97;;;;;;;7.42;92.86;97340.25;5022996;28;20243;-49
2022/03/17 06:36:13;;;;;;;27.97;24.37;;;;;;;7.49;92.65;97349.41;5025573;28;20247;-50
2022/03/17 06:38:41;;;;;;;29.33;24.67;;;;;;;7.53;92.71;97348.25;5028210;28;20268;-49
2022/03/17 06:41:07;;;;;;;29.87;25.77;;;;;;;7.57;93.00;97348.88;5025927;28;20206;-54
2022/03/17 06:43:34;;;;;;;28.60;25.50;;;;;;;7.61;92.44;97348.56;5022849;28;20279;-51
2022/03/17 06:46:01;;;;;;;29.30;25.60;;;;;;;7.69;92.29;97348.84;5023562;28;20223;-49
2022/03/17 06:48:28;;;;;;;30.53;25.43;;;;;;;7.74;92.56;97349.38;5022218;28;20191;-51
2022/03/17 06:50:54;;;;;;;30.33;26.90;;;;;;;7.86;91.85;97355.59;5020631;28;20270;-50
2022/03/17 06:53:21;;;;;;;31.80;26.60;;;;;;;7.88;91.77;97359.78;5021152;28;20203;-50
2022/03/17 06:55:49;;;;;;;29.23;26.13;;;;;;;7.98;92.21;97365.22;5021438;28;20203;-51
2022/03/17 06:58:15;;;;;;;29.80;26.03;;;;;;;8.07;91.74;97363.75;5020728;28;20207;-49
2022/03/17 07:00:42;;;;;;;29.03;25.90;;;;;;;8.17;91.57;97368.22;5021361;28;20224;-50
2022/03/17 07:03:08;;;;;;;30.13;26.93;;;;;;;8.20;91.73;97367.16;5021401;28;20205;-51
2022/03/17 07:05:35;;;;;;;30.27;26.70;;;;;;;8.25;91.71;97368.53;5024394;28;20212;-51
2022/03/17 07:08:01;;;;;;;30.20;26.93;;;;;;;8.37;90.99;97367.66;5042352;28;20202;-51
2022/03/17 07:10:29;;;;;;;30.40;26.93;;;;;;;8.40;89.22;97363.94;5041369;28;20224;-51
2022/03/17 07:12:57;;;;;;;29.90;26.70;;;;;;;8.50;89.31;97371.06;5035988;28;20625;-52
2022/03/17 07:15:24;;;;;;;33.10;26.80;;;;;;;8.49;88.16;97371.19;5021612;28;20223;-50
2022/03/17 07:17:50;;;;;;;29.93;26.73;;;;;;;8.54;88.96;97366.41;5020820;28;20207;-51
2022/03/17 07:20:19;;;;;;;28.00;24.90;;;;;;;8.60;88.96;97371.25;5021336;28;20201;-50
2022/03/17 07:22:47;;;;;;;28.17;25.27;;;;;;;8.64;88.97;97370.09;5020958;28;20203;-50
2022/03/17 07:25:14;;;;;;;29.87;26.60;;;;;;;8.65;87.91;97374.38;5021123;28;20273;-50
2022/03/17 07:27:43;;;;;;;28.70;25.13;;;;;;;8.77;87.12;97370.84;5021782;28;20200;-50
2022/03/17 07:30:13;;;;;;;28.33;25.03;;;;;;;8.89;86.77;97377.00;5020665;28;20243;-50
2022/03/17 07:32:40;;;;;;;28.17;25.27;;;;;;;8.93;87.03;97379.28;5022131;28;20589;-49
2022/03/17 07:35:07;;;;;;;28.73;25.77;;;;;;;8.98;85.81;97381.56;5025883;28;20199;-51
2022/03/17 07:37:33;;;;;;;28.60;25.63;;;;;;;9.13;85.46;97374.31;5026235;28;20200;-50
2022/03/17 07:40:00;;;;;;;28.80;25.63;;;;;;;9.17;85.74;97381.03;5019982;28;20212;-50
2022/03/17 07:42:26;;;;;;;27.50;24.60;;;;;;;9.23;84.79;97388.47;5016461;28;20672;-51
2022/03/17 07:44:53;;;;;;;27.87;24.90;;;;;;;9.35;83.25;97391.00;5020643;28;20196;-50
2022/03/17 07:47:24;;;;;;;26.83;23.60;;;;;;;9.41;82.87;97393.22;5020580;28;20200;-49
2022/03/17 07:49:52;;;;;;;26.93;24.10;;;;;;;9.42;84.12;97391.41;5022759;28;20217;-51
2022/03/17 07:52:19;;;;;;;29.13;26.03;;;;;;;9.54;82.76;97397.53;5024013;28;20208;-50
2022/03/17 07:54:46;;;;;;;28.43;25.07;;;;;;;9.62;82.62;97395.16;5023938;28;20215;-49
2022/03/17 07:57:13;;;;;;;27.90;24.90;;;;;;;9.61;81.46;97396.94;5024820;28;20204;-50
2022/03/17 07:59:40;;;;;;;28.10;25.10;;;;;;;9.76;82.03;97395.75;5024794;28;20203;-52
2022/03/17 08:02:06;;;;;;;27.33;24.50;;;;;;;9.79;81.64;97398.16;5024067;28;20255;-51
2022/03/17 08:04:34;;;;;;;30.73;23.97;;;;;;;9.85;80.62;97397.66;5024460;28;20219;-51
2022/03/17 08:07:01;;;;;;;29.30;25.37;;;;;;;9.88;80.54;97399.25;5024928;28;20235;-52
2022/03/17 08:09:28;;;;;;;28.83;25.73;;;;;;;9.96;80.29;97404.75;5023370;28;20684;-51
2022/03/17 08:11:54;;;;;;;28.53;25.10;;;;;;;10.13;79.83;97408.72;5023764;28;21388;-51
2022/03/17 08:14:21;;;;;;;28.10;25.13;;;;;;;10.14;79.58;97405.97;5024464;28;20213;-51
2022/03/17 08:16:47;;;;;;;29.90;24.70;;;;;;;10.24;79.02;97412.22;5024294;28;20203;-50
2022/03/17 08:19:14;;;;;;;29.73;25.83;;;;;;;10.37;78.77;97409.44;5024152;28;20245;-50
2022/03/17 08:21:44;;;;;;;30.53;26.27;;;;;;;10.35;77.29;97406.06;5023910;28;20200;-51
2022/03/17 08:24:11;;;;;;;28.43;25.33;;;;;;;10.41;77.74;97410.88;5024402;28;20204;-51
2022/03/17 08:26:38;;;;;;;30.23;25.90;;;;;;;10.48;77.96;97418.19;5024763;28;20312;-51
2022/03/17 08:29:05;;;;;;;28.40;25.43;;;;;;;10.60;77.93;97421.63;5023737;28;20258;-51
2022/03/17 08:31:31;;;;;;;27.47;24.57;;;;;;;10.70;77.50;97419.09;5023699;28;20228;-51
2022/03/17 08:33:58;;;;;;;28.17;24.80;;;;;;;10.81;76.82;97414.59;5024616;28;20240;-51
2022/03/17 08:36:25;;;;;;;28.07;25.07;;;;;;;10.78;77.18;97414.00;5026326;28;20215;-51
2022/03/17 08:38:53;;;;;;;30.00;24.87;;;;;;;10.81;77.51;97414.59;5026496;28;20205;-51
2022/03/17 08:41:19;;;;;;;33.93;26.27;;;;;;;10.85;76.42;97421.31;5024013;28;20292;-51
2022/03/17 08:43:46;;;;;;;31.30;26.23;;;;;;;11.03;75.69;97420.78;5023386;28;20551;-51
2022/03/17 08:51:40;;;;;;;30.00;25.83;;;;;;;11.32;75.45;97424.50;5022975;28;20251;-51
2022/03/17 08:54:09;;;;;;;29.07;26.17;;;;;;;11.48;74.78;97419.56;5023515;28;20216;-51
2022/03/17 08:56:37;;;;;;;29.27;26.27;;;;;;;11.33;74.61;97413.78;5023381;28;20278;-51
2022/03/17 08:59:04;;;;;;;31.70;25.93;;;;;;;11.41;74.05;97413.97;5023498;28;20262;-51
2022/03/17 09:01:30;;;;;;;30.63;27.30;;;;;;;11.57;74.61;97423.25;5023522;28;20208;-50
2022/03/17 09:03:57;;;;;;;34.17;27.50;;;;;;;11.57;73.19;97418.81;5023275;28;20208;-51
2022/03/17 09:06:24;;;;;;;31.60;26.43;;;;;;;11.70;73.09;97421.25;5023177;28;20534;-51
2022/03/17 09:08:50;;;;;;;28.47;25.47;;;;;;;11.72;72.57;97428.13;5023516;28;20514;-50
2022/03/17 09:11:18;;;;;;;31.00;25.73;;;;;;;11.95;72.19;97421.69;5023967;28;20239;-51
2022/03/17 09:13:46;;;;;;;30.13;25.70;;;;;;;12.11;72.72;97420.38;5023791;28;20208;-50
2022/03/17 09:16:13;;;;;;;30.43;27.17;;;;;;;12.27;70.97;97423.34;5022840;28;20291;-50
2022/03/17 09:18:42;;;;;;;29.37;26.27;;;;;;;12.29;70.73;97426.72;5023062;28;20273;-49
2022/03/17 09:21:09;;;;;;;30.63;25.93;;;;;;;12.32;70.24;97429.94;5022858;28;20290;-51
2022/03/17 09:23:37;;;;;;;30.20;27.03;;;;;;;12.52;70.50;97429.97;5023305;28;20204;-51
2022/03/17 09:26:04;;;;;;;30.00;26.93;;;;;;;12.65;70.21;97430.56;5022754;28;20211;-51
2022/03/17 09:28:32;;;;;;;28.87;25.77;;;;;;;12.77;69.28;97422.38;5022849;28;20216;-50
2022/03/17 09:30:58;;;;;;;29.53;25.97;;;;;;;12.82;69.18;97430.72;5024500;28;20228;-50
2022/03/17 09:33:25;;;;;;;29.63;26.57;;;;;;;13.04;67.81;97428.84;5026438;28;20238;-52
2022/03/17 09:35:52;;;;;;;29.17;26.27;;;;;;;13.06;67.91;97421.56;5024943;28;20216;-50
2022/03/17 09:38:19;;;;;;;30.37;26.70;;;;;;;13.15;67.86;97418.06;5024609;28;20572;-50
2022/03/17 09:40:45;;;;;;;28.97;25.70;;;;;;;13.50;67.20;97431.63;5025921;28;20207;-49
2022/03/17 09:43:22;;;;;;;30.27;26.07;;;;;;;13.56;66.97;97422.25;5023117;28;20637;-50
2022/03/17 09:45:52;;;;;;;30.40;26.00;;;;;;;13.59;65.67;97422.81;5022754;28;20203;-51
2022/03/17 09:48:20;;;;;;;28.83;26.03;;;;;;;13.78;66.27;97419.28;5023029;28;20217;-51
2022/03/17 09:50:48;;;;;;;30.07;26.77;;;;;;;13.75;64.36;97415.06;5023655;28;20220;-51
2022/03/17 09:53:14;;;;;;;28.93;26.03;;;;;;;14.14;65.57;97417.59;5023747;28;20215;-51
2022/03/17 09:55:43;;;;;;;28.47;25.47;;;;;;;14.32;64.47;97418.50;5022982;28;20204;-50
2022/03/17 09:58:10;;;;;;;29.10;25.87;;;;;;;14.51;64.35;97413.13;5022706;28;20234;-51
2022/03/17 10:00:49;;;;;;;30.53;27.17;;;;;;;14.07;63.53;97409.34;5022090;28;20211;-51
2022/03/17 10:03:18;;;;;;;30.07;25.67;;;;;;;14.05;62.62;97418.47;5022758;28;20271;-50
2022/03/17 10:05:46;;;;;;;29.17;26.17;;;;;;;13.93;64.79;97418.66;5022786;28;20241;-50
2022/03/17 10:08:14;;;;;;;32.80;27.20;;;;;;;14.05;64.45;97413.16;5022111;28;20231;-51
2022/03/17 10:10:42;;;;;;;29.40;26.27;;;;;;;14.15;64.42;97417.47;5022173;28;20223;-51
2022/03/17 10:13:12;;;;;;;29.00;25.90;;;;;;;14.57;64.18;97423.16;5022295;28;20849;-52
2022/03/17 10:15:39;;;;;;;29.73;26.73;;;;;;;14.59;62.67;97425.69;5023481;28;20590;-51
2022/03/17 10:18:21;;;;;;;30.03;26.63;;;;;;;14.74;62.88;97422.34;5023481;28;20211;-50
2022/03/17 10:20:47;;;;;;;29.50;26.47;;;;;;;14.56;64.44;97418.81;5023139;28;20219;-51
2022/03/17 10:23:14;;;;;;;30.97;26.40;;;;;;;14.72;63.61;97421.69;5023016;28;20206;-50
2022/03/17 10:25:40;;;;;;;32.80;26.45;;;;;;;14.89;63.41;97412.88;5023307;28;20790;-51
2022/03/17 10:28:07;;;;;;;30.47;27.27;;;;;;;15.12;62.86;97415.09;5028715;28;20204;-51
2022/03/17 10:30:35;;;;;;;30.03;26.40;;;;;;;14.97;62.02;97414.78;5033331;28;20227;-52
2022/03/17 10:33:03;;;;;;;29.27;26.00;;;;;;;15.21;62.78;97416.81;5025550;28;20273;-52
2022/03/17 10:35:34;;;;;;;28.55;25.55;;;;;;;15.36;61.73;97415.31;5022104;28;20214;-51
2022/03/17 10:38:09;;;;;;;29.13;26.13;;;;;;;15.37;61.72;97409.00;5021776;28;20208;-52
2022/03/17 10:40:36;;;;;;;30.02;26.83;;;;;;;15.92;59.77;97414.91;5021616;28;20295;-51
2022/03/17 10:43:19;;;;;;;27.50;24.75;;;;;;;16.22;59.82;97413.59;5021412;28;20219;-51
2022/03/17 10:45:45;;;;;;;29.50;25.42;;;;;;;15.74;60.54;97416.78;5021118;28;21313;-50
2022/03/17 10:48:14;;;;;;;27.30;24.60;;;;;;;16.22;60.25;97417.09;5021007;28;20219;-49
2022/03/17 10:50:43;;;;;;;33.47;26.25;;;;;;;16.54;58.19;97421.75;5022118;28;20235;-50
2022/03/17 10:53:10;;;;;;;31.20;26.13;;;;;;;16.65;57.44;97417.97;5021346;28;20208;-50
2022/03/17 10:55:38;;;;;;;29.42;25.60;;;;;;;16.41;58.03;97418.66;5020742;28;20542;-51
2022/03/17 10:58:13;;;;;;;32.72;26.83;;;;;;;16.42;58.63;97421.19;5021607;28;20205;-52
2022/03/17 11:00:46;;;;;;;30.90;26.13;;;;;;;16.27;58.76;97417.44;5020661;28;20637;-50
2022/03/17 11:03:14;;;;;;;30.42;26.83;;;;;;;16.25;58.60;97415.94;5021070;28;20285;-51
2022/03/17 11:05:42;;;;;;;30.17;26.73;;;;;;;15.99;60.47;97417.78;5020987;28;20240;-51
2022/03/17 11:08:09;;;;;;;30.00;26.77;;;;;;;16.06;60.46;97419.66;5020888;28;20204;-51
2022/03/17 11:10:36;;;;;;;29.85;26.73;;;;;;;16.17;59.36;97416.72;5020891;28;20224;-50
2022/03/17 11:13:09;;;;;;;32.13;26.45;;;;;;;16.06;60.37;97414.34;5021850;28;20200;-52
2022/03/17 11:15:38;;;;;;;29.40;24.63;;;;;;;16.24;60.04;97412.44;5021291;28;20197;-52
2022/03/17 11:18:06;;;;;;;28.63;25.75;;;;;;;16.18;59.83;97422.91;5020686;28;20296;-51
2022/03/17 11:20:33;;;;;;;28.85;25.85;;;;;;;16.42;58.68;97409.66;5020846;28;20200;-51
2022/03/17 11:23:19;;;;;;;29.77;26.73;;;;;;;16.30;59.39;97405.59;5023327;28;20200;-50
2022/03/17 11:25:53;;;;;;;28.75;25.80;;;;;;;16.45;59.32;97412.00;5025156;28;20220;-51
2022/03/17 11:28:32;;;;;;;30.05;26.92;;;;;;;16.35;58.47;97408.63;5024970;28;20297;-53
2022/03/17 11:31:00;;;;;;;30.15;26.83;;;;;;;16.52;59.71;97406.88;5024160;28;20666;-50
2022/03/17 11:33:28;;;;;;;28.15;25.35;;;;;;;16.63;60.04;97409.28;5024288;28;20255;-52
2022/03/17 11:35:56;;;;;;;28.73;25.92;;;;;;;16.75;59.18;97411.50;5024229;28;20211;-50
2022/03/17 11:38:28;;;;;;;29.13;25.77;;;;;;;17.04;58.40;97412.91;5024462;28;20263;-51
2022/03/17 11:41:09;;;;;;;27.90;24.63;;;;;;;17.45;57.96;97414.59;5021929;28;20235;-51